Time;durP1;ratioP1;P1;durP2;ratioP2;P2;SDS_P1;SDS_P2;PMS_P1;PMS_P2;Temp;Humidity;BMP_temperature;BMP_pressure;BME280_temperature;BME280_humidity;BME280_pressure;Samples;Min_cycle;Max_cycle;Signal;HPM_P1;HPM_P2
2022/04/26 03:37:05;;;;;;;12.10;6.22;;;;;;;10.36;66.23;101850.88;5052661;27;20051;-60
2022/04/26 03:39:32;;;;;;;11.60;5.80;;;;;;;10.26;66.55;101852.31;5042610;27;20071;-58
2022/04/26 03:41:59;;;;;;;11.10;6.55;;;;;;;10.21;66.60;101851.28;5045892;27;20088;-59
2022/04/26 03:44:24;;;;;;;10.35;6.40;;;;;;;10.30;66.64;101862.00;5041502;28;20097;-59
2022/04/26 03:46:50;;;;;;;15.45;7.18;;;;;;;10.22;67.15;101857.38;5049297;28;20056;-61
2022/04/26 03:49:15;;;;;;;20.02;7.80;;;;;;;10.24;66.63;101859.22;5049787;27;20048;-60
2022/04/26 03:51:41;;;;;;;14.25;8.18;;;;;;;9.95;67.73;101860.88;5050205;27;20056;-60
2022/04/26 03:54:06;;;;;;;14.98;7.55;;;;;;;10.02;67.67;101859.34;5047169;28;20082;-60
2022/04/26 03:56:32;;;;;;;15.70;7.55;;;;;;;10.00;67.98;101861.88;5055160;28;20105;-60
2022/04/26 03:58:57;;;;;;;16.88;7.65;;;;;;;10.01;67.27;101861.06;5049883;28;20074;-60
2022/04/26 04:01:22;;;;;;;16.05;7.85;;;;;;;10.02;67.56;101854.13;5056261;28;20191;-59
2022/04/26 04:03:47;;;;;;;16.42;7.88;;;;;;;9.92;67.80;101862.50;5044305;28;20570;-59
2022/04/26 04:06:13;;;;;;;16.80;7.65;;;;;;;9.71;68.63;101853.16;5051119;27;20134;-60
2022/04/26 04:08:38;;;;;;;15.23;7.82;;;;;;;9.70;68.16;101863.50;5051496;28;20373;-59
2022/04/26 04:11:03;;;;;;;17.48;8.05;;;;;;;9.83;68.14;101865.69;5052902;28;20433;-60
2022/04/26 04:13:29;;;;;;;15.45;8.20;;;;;;;9.89;67.96;101860.66;5058134;28;20043;-60
2022/04/26 04:15:55;;;;;;;19.02;8.00;;;;;;;9.75;68.65;101868.06;5047136;27;20057;-60
2022/04/26 04:21:04;;;;;;;20.50;8.05;;;;;;;9.65;68.90;101867.69;5053574;28;20036;-61
2022/04/26 04:23:30;;;;;;;12.85;7.82;;;;;;;9.75;68.43;101870.66;5048155;28;20317;-59
2022/04/26 04:25:56;;;;;;;15.82;7.82;;;;;;;9.74;68.59;101870.59;5048716;27;20048;-59
2022/04/26 04:28:21;;;;;;;16.42;8.57;;;;;;;9.61;68.47;101874.53;5052769;27;20125;-59
2022/04/26 04:30:46;;;;;;;14.77;8.45;;;;;;;9.58;68.96;101887.44;5050135;27;20497;-60
2022/04/26 04:33:11;;;;;;;15.13;8.20;;;;;;;9.65;68.36;101881.59;5060069;28;20048;-60
2022/04/26 04:35:37;;;;;;;16.20;8.10;;;;;;;9.60;68.44;101885.78;5039006;27;20106;-61
2022/04/26 04:38:03;;;;;;;19.23;8.77;;;;;;;9.52;68.61;101884.63;5035131;28;20119;-59
2022/04/26 04:40:28;;;;;;;15.15;7.72;;;;;;;9.36;69.03;101897.97;5048949;28;20254;-60
2022/04/26 04:42:53;;;;;;;16.23;7.97;;;;;;;9.44;69.00;101895.63;5055313;28;20040;-60
2022/04/26 04:45:19;;;;;;;19.42;8.30;;;;;;;9.35;68.96;101907.47;5048038;28;20555;-58
2022/04/26 04:47:45;;;;;;;16.52;8.40;;;;;;;9.35;69.15;101912.69;5054166;28;20443;-60
2022/04/26 04:50:10;;;;;;;15.40;7.90;;;;;;;9.41;69.07;101921.53;5048405;27;20055;-61
2022/04/26 04:52:36;;;;;;;18.33;8.02;;;;;;;9.42;69.38;101924.19;5050423;28;20036;-60
2022/04/26 04:55:02;;;;;;;16.95;8.50;;;;;;;9.48;68.94;101932.22;5052628;28;20105;-60
2022/04/26 04:57:27;;;;;;;17.13;8.23;;;;;;;9.56;69.09;101922.06;5048015;28;20087;-59
2022/04/26 04:59:53;;;;;;;17.23;8.23;;;;;;;9.56;68.54;101930.78;5055895;28;20771;-60
2022/04/26 05:02:18;;;;;;;17.65;8.10;;;;;;;9.51;68.79;101934.94;5044856;27;22461;-60
2022/04/26 05:04:45;;;;;;;15.80;8.27;;;;;;;9.50;68.79;101930.56;5040787;28;20452;-60
2022/04/26 05:07:10;;;;;;;14.68;8.35;;;;;;;9.59;68.20;101935.19;5048945;27;20110;-61
2022/04/26 05:09:35;;;;;;;18.48;8.55;;;;;;;9.43;68.89;101932.88;5048929;27;20044;-60
2022/04/26 05:12:01;;;;;;;20.05;8.68;;;;;;;9.43;69.09;101945.91;5042420;28;20139;-59
2022/04/26 05:14:26;;;;;;;13.82;8.00;;;;;;;9.49;68.95;101941.78;5055056;28;20135;-60
2022/04/26 05:16:52;;;;;;;15.60;8.07;;;;;;;9.45;68.66;101949.44;5045564;27;20075;-59
2022/04/26 05:19:17;;;;;;;17.33;8.10;;;;;;;9.51;68.50;101955.75;5046455;28;20047;-60
2022/04/26 05:21:42;;;;;;;16.52;8.52;;;;;;;9.45;68.68;101950.34;5053937;27;20107;-59
2022/04/26 05:26:52;;;;;;;18.53;8.37;;;;;;;9.35;69.24;101956.94;5051446;28;20051;-59
2022/04/26 05:29:17;;;;;;;18.75;8.80;;;;;;;9.46;68.71;101956.41;5057153;28;20294;-60
2022/04/26 05:31:42;;;;;;;15.02;8.38;;;;;;;9.38;69.06;101958.75;5044412;28;20070;-60
2022/04/26 05:34:08;;;;;;;18.88;8.63;;;;;;;9.57;68.06;101963.78;5043682;28;20181;-60
2022/04/26 05:36:33;;;;;;;18.85;8.48;;;;;;;9.45;68.92;101978.09;5052913;28;20416;-59
2022/04/26 05:39:00;;;;;;;17.15;8.60;;;;;;;9.52;68.25;101975.72;5055948;28;20056;-60
2022/04/26 05:41:25;;;;;;;19.08;8.57;;;;;;;9.50;68.00;101969.59;5049682;28;20131;-60
2022/04/26 05:43:51;;;;;;;19.05;8.95;;;;;;;9.50;68.37;101974.81;5046929;28;20041;-59
2022/04/26 05:46:16;;;;;;;20.92;8.82;;;;;;;9.52;68.23;101970.53;5047245;27;20075;-61
2022/04/26 05:48:41;;;;;;;16.80;8.60;;;;;;;9.56;68.00;101975.03;5044270;27;20040;-60
2022/04/26 05:51:07;;;;;;;19.88;8.88;;;;;;;9.50;68.13;101977.41;5052002;28;20040;-60
2022/04/26 05:53:35;;;;;;;18.92;8.98;;;;;;;9.54;68.54;101979.28;5049803;28;20081;-59
2022/04/26 05:56:10;;;;;;;19.13;8.73;;;;;;;9.62;68.69;101975.25;5042654;28;20536;-59
2022/04/26 05:58:36;;;;;;;15.93;8.55;;;;;;;9.71;67.96;101979.84;5045840;28;20194;-60
2022/04/26 06:01:03;;;;;;;17.42;8.70;;;;;;;9.77;67.86;101975.75;5047099;28;20454;-60
2022/04/26 06:03:28;;;;;;;17.33;8.50;;;;;;;9.92;66.96;101970.19;5049157;28;20055;-60
2022/04/26 06:05:55;;;;;;;15.80;8.40;;;;;;;9.87;67.47;101974.34;5040354;28;20421;-60
2022/04/26 06:08:22;;;;;;;14.50;8.35;;;;;;;9.97;67.06;101970.31;5047859;28;20601;-59
2022/04/26 06:10:48;;;;;;;16.42;8.45;;;;;;;10.05;66.89;101972.38;5040456;28;20056;-59
2022/04/26 06:13:15;;;;;;;15.90;8.23;;;;;;;10.60;65.43;101976.75;5046704;28;20112;-60
2022/04/26 06:15:40;;;;;;;14.50;8.15;;;;;;;11.03;63.72;101971.09;5045624;28;20046;-59
2022/04/26 06:18:05;;;;;;;12.15;7.55;;;;;;;11.52;62.11;101975.97;5039119;27;20075;-59
2022/04/26 06:20:31;;;;;;;18.98;8.10;;;;;;;11.40;62.08;101979.09;5046364;28;20040;-60
2022/04/26 06:22:56;;;;;;;14.95;7.47;;;;;;;11.74;61.86;101978.31;5052661;28;20040;-59
2022/04/26 06:25:21;;;;;;;17.60;6.57;;;;;;;12.75;59.34;101980.72;5047077;28;20051;-60
2022/04/26 06:27:59;;;;;;;18.80;6.90;;;;;;;14.16;56.61;101971.28;5058804;27;20100;-60
2022/04/26 06:30:24;;;;;;;12.75;5.70;;;;;;;15.61;52.23;101989.06;5045249;27;20493;-59
2022/04/26 06:32:49;;;;;;;12.13;5.40;;;;;;;15.98;50.00;101974.53;5053272;28;20076;-59
2022/04/26 06:35:15;;;;;;;12.10;5.38;;;;;;;16.13;48.01;101975.50;5047023;28;20307;-59
2022/04/26 06:37:40;;;;;;;15.05;5.15;;;;;;;16.12;47.19;101979.00;5051527;28;20555;-60
2022/04/26 06:40:06;;;;;;;11.07;5.18;;;;;;;17.09;46.19;101983.16;5046491;27;20131;-60
2022/04/26 06:42:31;;;;;;;10.20;4.80;;;;;;;17.15;44.93;101986.69;5048523;28;20039;-61
2022/04/26 06:44:57;;;;;;;11.35;4.68;;;;;;;17.63;44.50;101982.47;5042196;28;20404;-59
2022/04/26 06:47:22;;;;;;;9.88;4.40;;;;;;;17.64;43.46;101981.59;5024461;28;20044;-58
2022/04/26 06:49:47;;;;;;;13.18;4.85;;;;;;;18.10;43.10;101993.09;5040744;28;20036;-59
2022/04/26 06:52:13;;;;;;;11.15;4.60;;;;;;;17.78;42.52;101987.78;5042161;27;20032;-59
2022/04/26 06:54:38;;;;;;;10.68;4.75;;;;;;;17.78;42.88;101988.66;5033115;28;20041;-60
2022/04/26 06:57:03;;;;;;;8.93;4.40;;;;;;;17.58;43.10;101997.38;5052738;27;20728;-60
2022/04/26 06:59:29;;;;;;;11.50;5.00;;;;;;;16.84;44.20;102016.38;5056898;28;20074;-61
2022/04/26 07:01:55;;;;;;;10.02;4.85;;;;;;;16.53;45.35;102005.63;5047661;27;20052;-60
2022/04/26 07:04:21;;;;;;;10.68;4.90;;;;;;;17.28;43.80;102011.34;5033759;28;21027;-60
2022/04/26 07:06:47;;;;;;;12.27;4.95;;;;;;;18.09;42.26;102007.16;5040761;28;20076;-59
2022/04/26 07:09:13;;;;;;;10.60;4.95;;;;;;;16.74;43.38;102014.56;5047723;28;20024;-60
2022/04/26 07:11:38;;;;;;;11.60;5.20;;;;;;;15.80;45.39;102025.16;5064057;28;20068;-60
2022/04/26 07:14:06;;;;;;;10.52;5.45;;;;;;;15.12;47.78;102026.97;5038704;27;20040;-59
2022/04/26 07:16:32;;;;;;;10.40;5.32;;;;;;;15.66;46.80;102022.41;5052627;28;20056;-59
2022/04/26 07:18:57;;;;;;;13.50;5.60;;;;;;;14.96;47.02;102025.88;5063779;28;20040;-59
2022/04/26 07:21:22;;;;;;;13.80;5.88;;;;;;;15.55;46.88;102024.03;5056702;27;20032;-60
2022/04/26 07:23:48;;;;;;;10.63;6.00;;;;;;;15.62;46.45;102028.47;5051284;28;20052;-60
2022/04/26 07:26:13;;;;;;;12.45;5.55;;;;;;;15.58;45.27;102034.56;5039375;28;20037;-60
2022/04/26 07:28:39;;;;;;;13.35;5.75;;;;;;;15.97;45.90;102027.97;5053213;28;20047;-60
2022/04/26 07:31:05;;;;;;;10.00;5.43;;;;;;;15.96;44.65;102042.88;5056620;27;20048;-60
2022/04/26 07:36:14;;;;;;;12.35;5.72;;;;;;;16.69;44.14;102040.00;5047727;28;20428;-60
2022/04/26 07:38:40;;;;;;;12.55;5.40;;;;;;;16.96;43.76;102035.78;5055902;28;20037;-59
2022/04/26 07:41:07;;;;;;;11.68;5.15;;;;;;;17.65;42.34;102025.56;5054331;28;20538;-61
2022/04/26 07:43:33;;;;;;;14.35;5.40;;;;;;;17.07;42.13;102029.72;5058448;27;20447;-60
2022/04/26 07:45:58;;;;;;;13.18;5.80;;;;;;;15.44;45.70;102037.00;5038851;28;20058;-59
2022/04/26 07:48:24;;;;;;;10.23;5.20;;;;;;;15.98;45.49;102032.38;5041390;27;20036;-59
2022/04/26 07:50:51;;;;;;;15.43;5.53;;;;;;;16.72;44.38;102032.13;5058433;27;20067;-59
2022/04/26 07:53:16;;;;;;;12.63;5.43;;;;;;;16.31;44.70;102040.56;5054246;28;20051;-59
2022/04/26 07:55:42;;;;;;;8.98;5.03;;;;;;;17.08;42.17;102040.22;5056173;27;20619;-59
2022/04/26 07:58:07;;;;;;;9.77;5.22;;;;;;;16.95;41.24;102052.47;5045410;28;20044;-59
2022/04/26 08:00:33;;;;;;;9.48;5.18;;;;;;;15.98;43.34;102043.75;5047676;27;20273;-59
2022/04/26 08:02:59;;;;;;;9.57;4.85;;;;;;;16.50;43.50;102033.69;5054192;28;20040;-60
2022/04/26 08:05:24;;;;;;;15.50;4.88;;;;;;;16.80;42.15;102046.22;5058534;28;20043;-60
2022/04/26 08:07:50;;;;;;;9.93;4.82;;;;;;;16.90;41.17;102061.19;5056369;28;20055;-58
2022/04/26 08:10:16;;;;;;;11.73;5.15;;;;;;;16.35;42.80;102049.34;5045401;27;20405;-59
2022/04/26 08:12:42;;;;;;;10.32;5.45;;;;;;;16.01;43.43;102054.31;5047034;28;20471;-59
2022/04/26 08:15:10;;;;;;;16.17;5.72;;;;;;;15.67;44.59;102054.84;5045419;28;20922;-60
2022/04/26 08:17:35;;;;;;;12.32;5.47;;;;;;;15.87;44.42;102057.66;5048979;28;20055;-60
2022/04/26 08:20:02;;;;;;;11.80;5.57;;;;;;;15.76;44.76;102065.44;5044804;27;20456;-62
2022/04/26 08:22:27;;;;;;;8.65;5.35;;;;;;;14.70;45.37;102064.00;5057895;27;20115;-60
2022/04/26 08:27:37;;;;;;;10.70;6.00;;;;;;;15.03;45.92;102059.25;5038632;28;20347;-59
2022/04/26 08:30:04;;;;;;;11.23;5.70;;;;;;;14.70;46.27;102056.13;5050595;27;20401;-60
2022/04/26 08:32:43;;;;;;;12.55;5.97;;;;;;;14.81;46.45;102065.06;5053443;27;20040;-59
2022/04/26 08:35:11;;;;;;;11.25;5.68;;;;;;;14.70;46.01;102061.38;5055415;28;20093;-59
2022/04/26 08:37:38;;;;;;;10.45;5.40;;;;;;;14.86;47.11;102066.88;5054094;28;20043;-60
2022/04/26 08:40:06;;;;;;;11.32;5.45;;;;;;;14.94;45.33;102074.88;5035705;27;20105;-61
2022/04/26 08:42:37;;;;;;;12.43;5.80;;;;;;;14.93;46.23;102075.75;5045897;28;20044;-61
2022/04/26 08:45:11;;;;;;;8.90;5.30;;;;;;;14.76;44.18;102083.34;5057530;27;20162;-61
2022/04/26 08:53:08;;;;;;;9.18;4.75;;;;;;;14.62;44.61;102082.25;5051148;28;20390;-58
2022/04/26 08:55:41;;;;;;;10.23;5.10;;;;;;;14.93;43.94;102079.25;5055126;27;20467;-60
2022/04/26 08:58:08;;;;;;;11.68;4.45;;;;;;;14.82;42.82;102083.44;5046759;28;20028;-60
2022/04/26 09:00:33;;;;;;;8.35;4.50;;;;;;;14.68;42.61;102092.84;5057524;27;20551;-60
2022/04/26 09:03:02;;;;;;;9.30;4.82;;;;;;;14.90;42.20;102086.19;5048918;28;20040;-59
2022/04/26 09:05:27;;;;;;;9.90;4.35;;;;;;;14.56;41.88;102097.91;5053117;28;20050;-60
2022/04/26 09:07:53;;;;;;;12.00;4.88;;;;;;;14.64;43.08;102096.25;5045191;28;20044;-59
2022/04/26 09:10:20;;;;;;;8.18;4.90;;;;;;;14.88;42.74;102099.28;5047883;27;20581;-60
2022/04/26 09:13:07;;;;;;;10.57;4.70;;;;;;;14.82;42.59;102099.19;5057023;28;20054;-60
2022/04/26 09:15:37;;;;;;;8.57;4.72;;;;;;;15.32;43.32;102099.91;5048383;27;20051;-60
2022/04/26 09:18:15;;;;;;;8.65;4.55;;;;;;;15.21;41.67;102103.25;5039915;28;20059;-62
2022/04/26 09:20:42;;;;;;;6.85;4.03;;;;;;;15.36;40.69;102091.22;5050405;27;20040;-60
2022/04/26 09:23:24;;;;;;;8.15;4.57;;;;;;;15.72;41.40;102103.97;5067783;27;20036;-61
2022/04/26 09:26:04;;;;;;;7.30;4.47;;;;;;;16.31;40.36;102103.72;5053633;28;20514;-61
2022/04/26 09:28:30;;;;;;;7.22;4.30;;;;;;;16.28;39.52;102101.06;5053043;28;20043;-60
2022/04/26 09:30:56;;;;;;;10.32;5.05;;;;;;;16.39;43.92;102107.31;5045321;28;20067;-61
2022/04/26 09:33:39;;;;;;;12.93;5.38;;;;;;;15.66;44.19;102118.78;5048650;28;20036;-59
2022/04/26 09:36:06;;;;;;;8.70;5.30;;;;;;;15.78;45.71;102109.31;5041555;27;20059;-61
2022/04/26 09:38:32;;;;;;;13.60;5.43;;;;;;;16.47;44.97;102113.50;5054947;28;20028;-60
2022/04/26 09:41:11;;;;;;;12.07;5.80;;;;;;;16.71;44.59;102114.66;5047408;28;20040;-60
2022/04/26 09:43:40;;;;;;;12.57;5.80;;;;;;;16.43;45.70;102114.34;5049830;28;20036;-60
2022/04/26 09:46:07;;;;;;;10.60;5.93;;;;;;;16.35;44.76;102125.66;5040514;27;20047;-60
2022/04/26 09:48:35;;;;;;;10.80;5.60;;;;;;;16.67;45.91;102121.63;5050337;27;20118;-61
2022/04/26 09:51:10;;;;;;;10.98;5.80;;;;;;;16.18;45.12;102125.50;5048812;27;20076;-60
2022/04/26 09:53:35;;;;;;;12.55;6.50;;;;;;;15.30;46.29;102132.31;5049414;28;20037;-60
2022/04/26 09:56:02;;;;;;;10.82;6.07;;;;;;;15.41;46.80;102134.22;5026550;28;20503;-60
2022/04/26 09:58:29;;;;;;;10.88;5.90;;;;;;;15.25;47.08;102131.34;5045541;28;20495;-60
2022/04/26 10:01:04;;;;;;;10.70;6.00;;;;;;;15.21;46.75;102138.31;5057113;27;20047;-61
2022/04/26 10:03:32;;;;;;;10.02;5.50;;;;;;;14.91;46.39;102140.47;5055505;28;20147;-61
2022/04/26 10:06:01;;;;;;;11.73;5.38;;;;;;;14.49;45.00;102146.78;5042120;28;20159;-60
2022/04/26 10:08:29;;;;;;;9.57;5.07;;;;;;;14.12;45.17;102141.69;5045321;28;20066;-61
2022/04/26 10:10:55;;;;;;;11.48;5.60;;;;;;;14.38;45.89;102139.56;5045775;28;20043;-61
2022/04/26 10:13:35;;;;;;;11.23;5.60;;;;;;;14.92;46.49;102135.25;5054207;28;20055;-61
2022/04/26 10:16:08;;;;;;;8.73;5.45;;;;;;;15.70;46.39;102134.63;5037438;28;20424;-62
2022/04/26 10:18:44;;;;;;;9.15;5.18;;;;;;;15.66;43.66;102127.56;5048782;28;20048;-59
2022/04/26 10:21:30;;;;;;;10.30;5.50;;;;;;;16.18;44.14;102130.78;5043285;28;20487;-60
2022/04/26 10:24:01;;;;;;;8.70;5.47;;;;;;;16.57;44.10;102131.16;5038749;28;20078;-60
2022/04/26 10:26:27;;;;;;;10.65;5.30;;;;;;;16.43;41.57;102139.78;5041090;28;20182;-60
2022/04/26 10:29:00;;;;;;;10.95;5.30;;;;;;;15.25;42.55;102132.22;5045927;28;20175;-59
2022/04/26 10:31:38;;;;;;;10.07;4.88;;;;;;;15.22;43.35;102134.81;5041736;27;20763;-59
2022/04/26 10:34:20;;;;;;;6.50;4.40;;;;;;;15.89;42.17;102135.72;5040603;28;20523;-62
2022/04/26 10:36:47;;;;;;;6.90;4.82;;;;;;;16.20;40.33;102136.94;5047958;28;20155;-60
2022/04/26 10:39:13;;;;;;;8.82;4.47;;;;;;;16.65;40.80;102136.50;5047432;28;20040;-60
2022/04/26 10:41:40;;;;;;;9.73;5.25;;;;;;;16.82;41.81;102139.31;5051076;28;20052;-60
2022/04/26 10:44:24;;;;;;;8.57;5.10;;;;;;;17.23;43.13;102137.84;5042677;27;20335;-59
2022/04/26 10:46:53;;;;;;;9.38;5.13;;;;;;;17.47;43.03;102138.84;5049409;27;20329;-60
2022/04/26 10:49:22;;;;;;;12.20;5.38;;;;;;;16.55;42.50;102153.97;5047559;28;20845;-60
2022/04/26 10:51:48;;;;;;;12.15;5.22;;;;;;;16.43;44.47;102142.44;5051674;27;20126;-60
2022/04/26 10:54:13;;;;;;;9.23;5.10;;;;;;;16.25;44.25;102151.03;5046268;28;20115;-59
2022/04/26 10:56:38;;;;;;;9.55;5.78;;;;;;;16.07;45.12;102141.19;5038593;27;20239;-60
2022/04/26 10:59:13;;;;;;;9.80;5.18;;;;;;;16.40;43.93;102145.03;5038239;28;20663;-61
2022/04/26 11:01:39;;;;;;;8.90;5.10;;;;;;;16.70;44.80;102150.63;5038780;27;20477;-60
2022/04/26 11:04:05;;;;;;;9.60;5.32;;;;;;;16.90;44.22;102149.00;5035178;28;20432;-60
2022/04/26 11:06:39;;;;;;;9.43;5.05;;;;;;;16.95;43.87;102152.59;5048567;27;20399;-60
2022/04/26 11:09:15;;;;;;;10.50;5.03;;;;;;;17.11;43.85;102150.94;5044920;28;20058;-61
2022/04/26 11:12:02;;;;;;;13.38;5.40;;;;;;;17.11;43.91;102157.94;5048468;27;20040;-59
2022/04/26 11:14:31;;;;;;;11.70;5.65;;;;;;;17.00;43.74;102153.50;5051291;27;20225;-60
2022/04/26 11:16:58;;;;;;;11.88;5.32;;;;;;;17.12;43.74;102165.00;5050628;28;20371;-60
2022/04/26 11:19:53;;;;;;;10.52;5.65;;;;;;;16.83;43.58;102163.00;5056609;28;20031;-60
2022/04/26 11:22:20;;;;;;;8.45;5.60;;;;;;;16.71;43.59;102159.41;5040223;28;20378;-60
2022/04/26 11:30:25;;;;;;;8.48;5.00;;;;;;;16.62;41.81;102165.47;5049994;27;20051;-58
2022/04/26 11:32:51;;;;;;;10.00;4.80;;;;;;;16.52;42.67;102171.50;5049378;28;20036;-60
2022/04/26 11:35:19;;;;;;;10.63;5.05;;;;;;;16.53;43.52;102166.22;5044298;27;20105;-61
2022/04/26 11:37:46;;;;;;;7.72;4.60;;;;;;;16.84;42.86;102171.78;5047243;27;20039;-61
2022/04/26 11:40:21;;;;;;;9.00;4.72;;;;;;;16.94;42.07;102174.53;5043990;28;20242;-60
2022/04/26 11:42:46;;;;;;;8.55;4.53;;;;;;;17.17;41.64;102179.06;5050952;28;20037;-60
2022/04/26 11:45:11;;;;;;;7.20;4.28;;;;;;;16.99;41.24;102177.19;5044072;28;20036;-61
2022/04/26 11:47:48;;;;;;;10.35;4.28;;;;;;;16.99;40.74;102179.81;5040441;28;20082;-60
2022/04/26 11:50:13;;;;;;;6.75;3.70;;;;;;;16.85;39.29;102186.72;5033361;27;20071;-59
2022/04/26 11:52:39;;;;;;;7.95;3.63;;;;;;;16.68;37.23;102183.06;5043451;28;20469;-59
2022/04/26 11:55:06;;;;;;;7.82;3.90;;;;;;;16.87;39.11;102191.16;5042709;28;20044;-59
2022/04/26 11:57:32;;;;;;;6.25;3.65;;;;;;;17.15;39.39;102192.22;5043702;28;20048;-59
2022/04/26 11:59:58;;;;;;;7.88;3.90;;;;;;;17.27;40.27;102191.44;5035146;27;20063;-60
2022/04/26 12:02:25;;;;;;;8.50;4.00;;;;;;;17.14;39.91;102201.00;5043903;27;20105;-59
2022/04/26 12:04:52;;;;;;;10.13;3.90;;;;;;;16.81;39.23;102203.38;5049600;28;21013;-60
2022/04/26 12:07:17;;;;;;;9.32;4.07;;;;;;;17.19;41.08;102195.78;5049564;28;20048;-60
2022/04/26 12:09:43;;;;;;;9.07;3.70;;;;;;;17.31;38.71;102206.41;5051369;28;20041;-59
2022/04/26 12:12:10;;;;;;;7.25;3.40;;;;;;;16.69;37.87;102206.78;5047950;28;20405;-59
2022/04/26 12:14:40;;;;;;;6.35;3.25;;;;;;;16.84;39.54;102217.44;5063327;28;20165;-58
2022/04/26 12:17:17;;;;;;;5.38;3.60;;;;;;;16.66;39.72;102212.00;5061484;28;20809;-61
2022/04/26 12:19:45;;;;;;;6.40;3.60;;;;;;;16.21;40.27;102207.13;5053295;27;20032;-60
2022/04/26 12:22:10;;;;;;;7.45;3.40;;;;;;;16.62;40.82;102205.84;5049537;27;20419;-61
2022/04/26 12:24:51;;;;;;;6.88;3.50;;;;;;;16.54;39.41;102206.59;5051406;28;20040;-61
2022/04/26 12:27:19;;;;;;;11.38;3.75;;;;;;;15.88;40.66;102209.34;5045271;28;20109;-60
2022/04/26 12:29:47;;;;;;;6.38;3.35;;;;;;;16.24;39.79;102210.66;5058735;28;20035;-60
2022/04/26 12:32:17;;;;;;;6.53;3.50;;;;;;;16.39;40.67;102209.97;5042113;27;20117;-61
2022/04/26 12:34:53;;;;;;;6.38;3.47;;;;;;;16.00;38.38;102209.50;5054665;27;20487;-59
2022/04/26 12:37:26;;;;;;;6.72;3.58;;;;;;;15.78;40.41;102216.22;5037393;28;20774;-58
2022/04/26 12:40:09;;;;;;;8.40;3.63;;;;;;;15.53;39.54;102206.25;5038005;27;20049;-60
2022/04/26 12:42:40;;;;;;;5.85;4.00;;;;;;;16.00;41.60;102220.91;5054969;27;20244;-60
2022/04/26 12:45:24;;;;;;;7.03;3.63;;;;;;;16.47;42.41;102216.16;5056069;28;20373;-60
2022/04/26 12:50:51;;;;;;;7.05;4.20;;;;;;;16.42;41.13;102214.34;5052573;27;20121;-59
2022/04/26 12:53:32;;;;;;;10.35;4.40;;;;;;;16.37;42.00;102216.06;5055069;27;20060;-59
2022/04/26 12:56:06;;;;;;;7.60;3.60;;;;;;;16.24;40.68;102223.81;5043747;28;20357;-59
2022/04/26 12:58:38;;;;;;;;;;;;;;;16.41;40.96;102210.84;5050292;27;20045;-59
2022/04/26 13:01:05;;;;;;;8.50;4.28;;;;;;;16.46;41.72;102226.72;5037900;27;20007;-60
2022/04/26 13:03:31;;;;;;;8.27;3.92;;;;;;;16.08;40.85;102224.50;5050405;28;20138;-60
2022/04/26 13:06:12;;;;;;;6.45;3.47;;;;;;;15.11;39.65;102240.59;5042262;28;20047;-60
2022/04/26 13:08:40;;;;;;;8.18;3.88;;;;;;;15.64;41.69;102231.81;5053001;27;20036;-60
2022/04/26 13:11:06;;;;;;;6.97;4.10;;;;;;;15.68;40.07;102227.47;5057051;28;20117;-61
2022/04/26 13:13:33;;;;;;;8.95;4.60;;;;;;;15.28;41.82;102237.38;5056850;27;20037;-59
2022/04/26 13:15:59;;;;;;;7.13;4.30;;;;;;;15.57;43.49;102240.47;5046274;27;20060;-58
2022/04/26 13:18:25;;;;;;;8.55;4.57;;;;;;;15.81;42.63;102235.56;5052545;28;20044;-59
2022/04/26 13:20:50;;;;;;;7.18;4.35;;;;;;;15.68;41.88;102227.47;5048692;28;20048;-60
2022/04/26 13:23:16;;;;;;;8.13;4.47;;;;;;;15.82;41.71;102231.19;5048417;27;20498;-59
2022/04/26 13:25:43;;;;;;;5.80;4.20;;;;;;;15.91;42.41;102231.31;5044841;28;20727;-59
2022/04/26 13:28:09;;;;;;;6.68;4.30;;;;;;;15.56;41.46;102238.69;5046127;28;20048;-59
2022/04/26 13:30:35;;;;;;;8.50;4.22;;;;;;;15.69;41.15;102231.88;5065135;27;20485;-59
2022/04/26 13:33:01;;;;;;;5.78;3.47;;;;;;;15.52;39.60;102230.72;5050166;28;20577;-61
2022/04/26 13:35:27;;;;;;;6.95;3.90;;;;;;;15.38;42.47;102234.00;5039202;28;20407;-60
2022/04/26 13:37:54;;;;;;;7.43;3.88;;;;;;;15.36;42.31;102224.34;5053839;28;20040;-60
2022/04/26 13:40:21;;;;;;;10.57;4.45;;;;;;;15.53;43.11;102237.78;5047570;27;20151;-60
2022/04/26 13:42:47;;;;;;;8.30;4.72;;;;;;;15.70;42.82;102233.63;5049081;28;20048;-59
2022/04/26 13:45:13;;;;;;;9.10;4.38;;;;;;;15.85;43.66;102225.09;5050199;28;20138;-60
2022/04/26 13:47:45;;;;;;;6.32;4.20;;;;;;;15.77;42.24;102230.25;5042119;28;20155;-59
2022/04/26 13:50:12;;;;;;;6.78;4.38;;;;;;;15.45;42.69;102227.09;5045168;27;20491;-57
2022/04/26 13:52:41;;;;;;;8.85;4.75;;;;;;;15.58;42.96;102230.84;5034640;28;20516;-60
2022/04/26 13:55:06;;;;;;;8.15;4.40;;;;;;;15.66;43.65;102230.09;5035152;27;20086;-60
2022/04/26 13:57:32;;;;;;;7.50;4.20;;;;;;;15.78;43.41;102227.63;5049469;28;20159;-60
2022/04/26 13:59:58;;;;;;;11.05;4.03;;;;;;;15.80;42.52;102225.88;5055262;28;20024;-59
2022/04/26 14:02:24;;;;;;;8.38;4.28;;;;;;;15.69;41.75;102216.97;5043245;28;20278;-61
2022/04/26 14:04:49;;;;;;;7.45;4.20;;;;;;;15.41;43.14;102227.94;5051229;27;20043;-60
2022/04/26 14:07:15;;;;;;;10.82;4.65;;;;;;;15.57;43.57;102215.91;5056416;28;20267;-60
2022/04/26 14:09:41;;;;;;;6.97;4.30;;;;;;;15.33;43.48;102222.56;5048655;27;20052;-60
2022/04/26 14:12:08;;;;;;;7.53;4.68;;;;;;;15.46;44.15;102223.63;5044316;28;20043;-60
2022/04/26 14:22:50;;;;;;;7.45;4.35;;;;;;;15.38;43.58;102223.50;5041862;28;20450;-59
2022/04/26 14:25:15;;;;;;;10.73;4.60;;;;;;;15.49;43.40;102235.94;5035578;28;20048;-60
2022/04/26 14:27:43;;;;;;;6.72;4.20;;;;;;;15.27;42.65;102230.34;5043165;28;20123;-60
2022/04/26 14:30:11;;;;;;;6.22;4.40;;;;;;;15.42;44.05;102237.59;5039573;28;20051;-61
2022/04/26 14:32:36;;;;;;;7.68;4.63;;;;;;;15.46;44.12;102241.13;5042826;28;20477;-59
2022/04/26 14:35:02;;;;;;;7.32;4.38;;;;;;;15.49;43.96;102238.56;5061463;28;20055;-60
2022/04/26 14:37:27;;;;;;;7.38;4.40;;;;;;;15.54;43.36;102235.19;5049542;27;20054;-59
2022/04/26 14:39:53;;;;;;;7.90;4.50;;;;;;;15.54;42.88;102240.44;5049985;28;20040;-59
2022/04/26 14:42:18;;;;;;;8.57;4.53;;;;;;;15.52;43.16;102238.59;5039454;28;20143;-59
2022/04/26 14:44:45;;;;;;;7.30;4.20;;;;;;;15.58;43.37;102234.34;5049736;28;21032;-59
2022/04/26 14:47:12;;;;;;;6.43;3.92;;;;;;;14.93;42.08;102238.53;5053223;28;20123;-59
2022/04/26 14:49:38;;;;;;;7.15;4.75;;;;;;;14.50;44.06;102232.53;5047951;28;20165;-59
2022/04/26 14:52:04;;;;;;;8.35;4.78;;;;;;;14.85;45.84;102242.75;5048838;27;20520;-59
2022/04/26 14:54:29;;;;;;;8.10;4.88;;;;;;;14.70;44.75;102234.63;5042614;27;20044;-61
2022/04/26 14:56:54;;;;;;;7.45;4.70;;;;;;;14.85;45.40;102248.03;5054107;28;20092;-60
2022/04/26 14:59:22;;;;;;;8.35;5.00;;;;;;;14.79;45.43;102237.41;5048415;28;21821;-61
2022/04/26 15:01:49;;;;;;;9.13;4.97;;;;;;;14.53;46.41;102245.69;5052525;28;20119;-60
2022/04/26 15:04:22;;;;;;;10.20;4.55;;;;;;;14.68;46.00;102239.84;5037679;27;20056;-60
2022/04/26 15:06:48;;;;;;;8.35;4.65;;;;;;;14.85;45.96;102243.66;5053766;27;20445;-60
2022/04/26 15:17:28;;;;;;;10.32;5.07;;;;;;;14.11;45.62;102240.44;5043401;28;20378;-60
2022/04/26 15:19:54;;;;;;;8.90;4.40;;;;;;;14.41;44.93;102241.94;5045236;28;20059;-59
2022/04/26 15:22:20;;;;;;;9.63;4.38;;;;;;;14.39;45.16;102252.44;5039370;28;20044;-60
2022/04/26 15:24:46;;;;;;;6.82;3.92;;;;;;;14.45;45.35;102247.31;5056025;27;20447;-59
2022/04/26 15:27:13;;;;;;;7.65;4.70;;;;;;;13.90;46.73;102231.25;5052439;27;20477;-60
2022/04/26 15:29:38;;;;;;;10.43;4.90;;;;;;;14.31;47.31;102243.47;5056061;27;20113;-60
2022/04/26 15:32:04;;;;;;;12.40;5.15;;;;;;;13.91;47.61;102236.50;5047849;27;20044;-60
2022/04/26 15:34:30;;;;;;;10.27;4.85;;;;;;;14.23;47.39;102248.56;5044214;28;20047;-60
2022/04/26 15:36:55;;;;;;;8.13;4.80;;;;;;;14.34;47.22;102245.25;5051847;27;20110;-60
2022/04/26 15:39:20;;;;;;;9.93;4.80;;;;;;;14.11;46.77;102252.66;5049781;28;20040;-59
2022/04/26 15:41:46;;;;;;;7.82;4.35;;;;;;;13.92;46.46;102235.66;5050146;28;20040;-59